Flight Track Log - Related Links

Times and Time Zones

All times are in EDT time to prevent confusion due to time zone crossing. See the N614LM flight status page for this flight to view local times or setup timezone preferences in your user account.


Time Position Orientation Groundspeed Altitude Reporting Facility
EDT Latitude Longitude Course Direction KTS MPH feet Rate Location/Type
Fri 12:40:00 PM 30.2341 -84.2227 148° Southeast  Level Estimated
Fri 12:41:00 PM 30.2000 -84.2000 150° Southeast  Level FlightAware Approximate
Fri 12:42:00 PM 30.1659 -84.1772 150° Southeast  Level FlightAware Approximate
Fri 12:43:00 PM 30.1334 -84.1516 139° Southeast  Level Estimated
Fri 12:44:00 PM 30.1009 -84.1260 145° Southeast  Level Estimated
Fri 12:45:00 PM 30.0691 -84.0991 144° Southeast  Level FlightAware Approximate
Fri 12:46:00 PM 30.0374 -84.0722 144° Southeast  Level FlightAware Approximate
Fri 12:47:00 PM 30.0057 -84.0454 144° Southeast  Level FlightAware Approximate
Fri 12:48:00 PM 29.9739 -84.0185 144° Southeast  Level FlightAware Approximate
Fri 12:48:48 PM 30.0503 -84.0564 151° Southeast 124 143 8,300  Level Jacksonville Center
Fri 12:49:00 PM 29.9422 -83.9917 144° Southeast  Level FlightAware Approximate
Fri 12:49:48 PM 30.0214 -84.0344 147° Southeast 124 143 8,700  Level Jacksonville Center
Fri 12:50:00 PM 29.9104 -83.9649 144° Southeast  Level FlightAware Approximate
Fri 12:50:48 PM 29.9922 -84.0125 147° Southeast 124 143 8,900  Level Jacksonville Center
Fri 12:51:00 PM 29.8786 -83.9381 144° Southeast  Level FlightAware Approximate
Fri 12:51:48 PM 29.9592 -83.9906 150° Southeast 124 143 9,100  Level Jacksonville Center
Fri 12:52:00 PM 29.8469 -83.9114 144° Southeast  Level FlightAware Approximate
Fri 12:52:48 PM 29.9194 -83.9686 154° Southeast 136 157 9,000  Level Jacksonville Center
Fri 12:53:00 PM 29.8142 -83.8861 151° Southeast  Level Estimated
Fri 12:53:48 PM 29.8864 -83.9442 147° Southeast 141 162 9,000  Level Jacksonville Center
Fri 12:54:00 PM 29.7798 -83.8641 151° Southeast  Level FlightAware Approximate
Fri 12:54:48 PM 29.8511 -83.9175 147° Southeast 141 162 9,100  Level Jacksonville Center
Fri 12:55:48 PM 29.8158 -83.8931 149° Southeast 141 162 9,100  Level Jacksonville Center
Fri 12:56:48 PM 29.7783 -83.8714 153° Southeast 141 162 9,100 -50 Level Jacksonville Center
Fri 12:57:48 PM 29.7411 -83.8494 153° Southeast 141 162 9,000 -50 Descending Jacksonville Center
Fri 12:58:48 PM 29.7036 -83.8275 153° Southeast 146 168 9,000  Level Jacksonville Center
Fri 12:59:48 PM 29.6683 -83.8056 152° Southeast 151 174 9,000  Level Jacksonville Center
Fri 01:00:48 PM 29.6308 -83.7861 156° South 151 174 9,000  Level Jacksonville Center
Fri 01:01:48 PM 29.5956 -83.7644 152° Southeast 151 174 9,000 50 Level Jacksonville Center
Fri 01:02:48 PM 29.5600 -83.7403 149° Southeast 151 174 9,100 50 Climbing Jacksonville Center
Fri 01:03:48 PM 29.5269 -83.7136 145° Southeast 151 174 9,100 -50 Level Jacksonville Center
Fri 01:04:49 PM 29.4894 -83.6919 153° Southeast 151 174 9,000 -50 Descending Jacksonville Center
Fri 01:05:48 PM 29.4519 -83.6747 158° South 151 174 9,000 50 Level Jacksonville Center
Fri 01:06:48 PM 29.4144 -83.6625 164° South 151 174 9,100 50 Climbing Jacksonville Center
Fri 01:07:48 PM 29.3750 -83.6481 162° South 146 168 9,100  Level Jacksonville Center
Fri 01:08:48 PM 29.3375 -83.6286 156° South 146 168 9,100  Level Jacksonville Center
Fri 01:09:48 PM 29.2978 -83.6117 160° South 146 168 9,100 -50 Level Jacksonville Center
Fri 01:10:48 PM 29.2625 -83.5972 160° South 146 168 9,000 -50 Descending Jacksonville Center
Fri 01:11:48 PM 29.2250 -83.5756 153° Southeast 146 168 9,000 50 Level Jacksonville Center
Fri 01:12:48 PM 29.1917 -83.5514 148° Southeast 146 168 9,100 50 Climbing Jacksonville Center
Fri 01:13:48 PM 29.1647 -83.5203 135° Southeast 146 168 9,100  Level Jacksonville Center
Fri 01:14:48 PM 29.1358 -83.4869 135° Southeast 146 168 9,100 -50 Level Jacksonville Center
Fri 01:15:49 PM 29.1067 -83.4533 135° Southeast 146 168 9,000  Descending Jacksonville Center
Fri 01:16:48 PM 29.0775 -83.4247 139° Southeast 141 162 9,100  Climbing Jacksonville Center
Fri 01:17:48 PM 29.0442 -83.4033 151° Southeast 146 168 9,000  Descending Jacksonville Center
Fri 01:18:49 PM 29.0089 -83.3792 149° Southeast 146 168 9,100  Climbing Jacksonville Center
Fri 01:19:48 PM 28.9756 -83.3553 148° Southeast 146 168 9,000  Descending Jacksonville Center
Fri 01:20:48 PM 28.9422 -83.3339 151° Southeast 141 162 9,100 50 Climbing Jacksonville Center
Fri 01:21:48 PM 28.9047 -83.3100 151° Southeast 141 162 9,100  Level Jacksonville Center
Fri 01:22:48 PM 28.8736 -83.2839 144° Southeast 135 155 9,100 -50 Level Jacksonville Center
Fri 01:23:49 PM 28.8403 -83.2553 143° Southeast 140 161 9,000 -50 Descending Jacksonville Center
Fri 01:24:48 PM 28.8089 -83.2267 141° Southeast 140 161 9,000 32 Level Jacksonville Center
Fri 01:26:58 PM 28.7333 -83.1667 145° Southeast 143 165 9,100 32 Climbing Tampa TRACON
Fri 01:27:53 PM 28.7167 -83.1333 120° Southeast 144 166 9,100  Level Tampa TRACON
Fri 01:28:53 PM 28.6833 -83.1167 156° South 145 167 9,100 -100 Level Tampa TRACON
Fri 01:29:53 PM 28.6500 -83.0833 139° Southeast 143 165 8,900 -286 Descending Tampa TRACON
Fri 01:30:59 PM 28.6167 -83.0500 139° Southeast 156 180 8,500 -300 Descending Tampa TRACON
Fri 01:31:53 PM 28.5667 -83.0333 164° South 159 183 8,300 -333 Descending Tampa TRACON
Fri 01:32:47 PM 28.5333 -83.0167 156° South 161 185 7,900 -550 Descending Tampa TRACON
Fri 01:33:53 PM 28.4833 -83.0000 164° South 172 198 7,200 -545 Descending Tampa TRACON
Fri 01:34:59 PM 28.4333 -82.9833 164° South 170 196 6,700 -500 Descending Tampa TRACON
Fri 01:36:05 PM 28.3833 -82.9667 164° South 166 191 6,100 -550 Descending Tampa TRACON
Fri 01:36:48 PM 28.3500 -82.9500 156° South 165 190 5,700 -583 Descending Tampa TRACON
Fri 01:37:48 PM 28.3167 -82.9500 180° South 161 185 5,100 -600 Descending Tampa TRACON
Fri 01:38:48 PM 28.2667 -82.9333 164° South 160 184 4,500 -550 Descending Tampa TRACON
Fri 01:39:48 PM 28.2333 -82.9167 156° South 159 183 4,000 -524 Descending Tampa TRACON
Fri 01:40:54 PM 28.1833 -82.9000 164° South 155 178 3,400 -476 Descending Tampa TRACON
Fri 01:41:54 PM 28.1333 -82.8833 164° South 153 176 3,000 -250 Descending Tampa TRACON
Fri 01:42:54 PM 28.1000 -82.8833 180° South 143 165 2,900 -50 Descending Tampa TRACON
Fri 01:43:54 PM 28.0667 -82.8667 156° South 137 158 2,900  Level Tampa TRACON
Fri 01:44:54 PM 28.0333 -82.8667 180° South 132 152 2,900  Level Tampa TRACON
Fri 01:45:54 PM 27.9833 -82.8500 164° South 131 151 2,900 -50 Level Tampa TRACON
Fri 01:46:54 PM 27.9500 -82.8500 180° South 138 159 2,800 -150 Descending Tampa TRACON
Fri 01:47:54 PM 27.9167 -82.8333 156° South 135 155 2,600 -100 Descending Tampa TRACON
Fri 01:48:54 PM 27.8833 -82.8333 180° South 133 153 2,600  Level Tampa TRACON
Fri 01:49:54 PM 27.8500 -82.8000 139° Southeast 132 152 2,600 -50 Level Tampa TRACON
Fri 01:50:54 PM 27.8167 -82.7833 156° South 136 157 2,500 -200 Descending Tampa TRACON
Fri 01:51:54 PM 27.7833 -82.7500 138° Southeast 146 168 2,200 -300 Descending Tampa TRACON
Fri 01:52:54 PM 27.7667 -82.7167 119° Southeast 150 173 1,900 -313 Descending Tampa TRACON
Fri 01:53:49 PM 27.7333 -82.6833 138° Southeast 145 167 1,600 -157 Descending Tampa TRACON
Fri 01:54:49 PM 27.7000 -82.6833 180° South 133 153 1,600  Level Tampa TRACON
Fri 01:55:49 PM 27.6667 -82.6667 156° South 128 147 1,600  Level Tampa TRACON
Fri 01:56:49 PM 27.6500 -82.6500 138° Southeast 126 145 1,600  Level Tampa TRACON
Fri 01:58:01 PM 27.6333 -82.6000 111° Southeast 127 146 1,600  Level Tampa TRACON
Fri 01:58:49 PM 27.6333 -82.5667 90° East 132 152 1,600  Level Tampa TRACON
Fri 01:59:55 PM 27.6667 -82.5333 42° Northeast 124 143 1,600  Level Tampa TRACON

Login

Don't have an account? Register now (free) for customized features, flight alerts, and more!